Main page
METAR-TAF:

METAR-TAF

Airports :

Oil platform

Ekofisk, Norway

latitude: 56-33N, longitude: 003-15E, elevation: 3 m

Current weather observation

The report was made 23 minutes ago, at 19:20 UTC
Wind 35 kt from the South
Temperature 7°C
Humidity 76%
Pressure 1006 hPa
Visibility 10 km or more
Scattered clouds at a height of 4000 ft
Broken clouds at a height of 10000 ft

METAR: ENLE 281920Z 17035KT 9999 SCT040 BKN100 07/03 Q1006 W07/S4

Time: 20:43 (19:43 UTC)

Forecast

The report was made 2 hours and 43 minutes ago, at 17:00 UTC
Forecast valid from 28 at 18 UTC to 29 at 03 UTC
Wind 35 kt from the South
Visibility 10 km or more
Few clouds at a height of 800 ft
Broken clouds at a height of 6000 ft
Becoming
from 28 at 18 UTC to 28 at 20 UTC
Overcast at a height of 800 ft
Becoming
from 28 at 23 UTC to 29 at 01 UTC
Visibility: 2000 m
Overcast at a height of 400 ft
rain, drizzle, mist,

TAF: ENLE 281700Z 2818/2903 19035KT 9999 FEW008 BKN060 BECMG 2818/2820 OVC008 BECMG 2823/2901 2000 RADZ BR OVC004

Weather observations and forecasts of more than 4000 airports (METAR and TAF reports).

The available stations are represented by yellow and red dots on the map.

Hover mouse over dot to see the name of the station.

Then click to see weather observations and forecasts.

To change the map : click on the green buttons with a black cross to zoom in, on the green button with a dash to zoom out, or on the green arrows for adjacent maps.


METAR-TAF: